createdAt,value
2023-04-03T00:00:40.917Z,4.10
2023-04-03T00:03:11.214Z,4.00
2023-04-03T00:05:41.635Z,4.00
2023-04-03T00:08:11.607Z,4.10
2023-04-03T00:10:44.473Z,4.10
2023-04-03T00:13:14.914Z,4.00
2023-04-03T00:15:45.209Z,4.00
2023-04-03T00:18:15.312Z,4.00
2023-04-03T00:20:45.209Z,4.00
2023-04-03T00:23:15.273Z,4.10
2023-04-03T00:25:47.877Z,4.00
2023-04-03T00:28:17.751Z,4.00
2023-04-03T00:30:47.632Z,4.00
2023-04-03T00:33:18.225Z,4.00
2023-04-03T00:35:48.193Z,3.90
2023-04-03T00:38:18.086Z,3.90
2023-04-03T00:40:52.423Z,3.90
2023-04-03T00:43:27.462Z,3.90
2023-04-03T00:45:59.417Z,3.90
2023-04-03T00:48:32.744Z,3.80
2023-04-03T00:51:03.353Z,3.90
2023-04-03T00:53:37.681Z,3.90
2023-04-03T00:56:13.831Z,3.90
2023-04-03T00:58:48.243Z,3.80
2023-04-03T01:01:25.559Z,3.90
2023-04-03T01:03:55.628Z,3.90
2023-04-03T01:06:32.068Z,3.90
2023-04-03T01:09:02.954Z,3.80
2023-04-03T01:11:35.590Z,3.80
2023-04-03T01:14:07.151Z,3.80
2023-04-03T01:16:37.124Z,3.80
2023-04-03T01:19:08.346Z,3.80
2023-04-03T01:22:11.970Z,3.70
2023-04-03T01:24:42.650Z,3.70
2023-04-03T01:27:15.761Z,3.70
2023-04-03T01:29:46.374Z,3.80
2023-04-03T01:32:18.886Z,3.70
2023-04-03T01:34:48.750Z,3.70
2023-04-03T01:37:18.617Z,3.70
2023-04-03T01:39:48.445Z,3.70
2023-04-03T01:42:18.349Z,3.70
2023-04-03T01:44:48.557Z,3.70
2023-04-03T01:47:21.133Z,3.60
2023-04-03T01:49:51.051Z,3.60
2023-04-03T01:52:20.970Z,3.60
2023-04-03T01:54:51.582Z,3.60
2023-04-03T01:57:21.490Z,3.60
2023-04-03T01:59:52.314Z,3.60
2023-04-03T02:02:24.850Z,3.60
2023-04-03T02:04:55.938Z,3.60
2023-04-03T02:07:25.953Z,3.60
2023-04-03T02:09:56.155Z,3.60
2023-04-03T02:12:26.004Z,3.60
2023-04-03T02:14:56.209Z,3.60
2023-04-03T02:17:29.018Z,3.50
2023-04-03T02:19:58.936Z,3.60
2023-04-03T02:22:28.848Z,3.60
2023-04-03T02:24:58.765Z,3.50
2023-04-03T02:27:28.652Z,3.50
2023-04-03T02:29:58.553Z,3.50
2023-04-03T02:32:31.218Z,3.60
2023-04-03T02:35:01.116Z,3.60
2023-04-03T02:37:31.136Z,3.60
2023-04-03T02:40:01.071Z,3.60
2023-04-03T02:42:30.929Z,3.60
2023-04-03T02:45:01.564Z,3.70
2023-04-03T02:47:34.027Z,3.70
2023-04-03T02:50:03.905Z,3.70
2023-04-03T02:52:33.729Z,3.70
2023-04-03T02:55:03.612Z,3.70
2023-04-03T02:57:33.565Z,3.70
2023-04-03T03:00:04.102Z,3.60
2023-04-03T03:02:36.528Z,3.60
2023-04-03T03:05:07.110Z,3.60
2023-04-03T03:07:37.460Z,3.60
2023-04-03T03:10:08.259Z,3.60
2023-04-03T03:12:38.128Z,3.60
2023-04-03T03:15:09.418Z,3.60
2023-04-03T03:17:42.002Z,3.60
2023-04-03T03:20:12.916Z,3.60
2023-04-03T03:22:42.765Z,3.60
2023-04-03T03:25:13.246Z,3.70
2023-04-03T03:27:43.122Z,3.60
2023-04-03T03:30:13.775Z,3.60
2023-04-03T03:32:46.571Z,3.60
2023-04-03T03:35:16.610Z,3.60
2023-04-03T03:37:46.696Z,3.70
2023-04-03T03:40:17.188Z,3.70
2023-04-03T03:42:48.029Z,3.70
2023-04-03T03:45:18.110Z,3.70
2023-04-03T03:47:50.565Z,3.80
2023-04-03T03:50:20.544Z,3.70
2023-04-03T03:52:50.372Z,3.80
2023-04-03T03:55:20.360Z,3.80
2023-04-03T03:57:50.254Z,3.80
2023-04-03T04:00:20.701Z,3.80
2023-04-03T04:02:53.578Z,3.80
2023-04-03T04:05:23.750Z,3.80
2023-04-03T04:07:53.644Z,3.80
2023-04-03T04:10:23.584Z,3.80
2023-04-03T04:12:53.489Z,3.80
2023-04-03T04:15:24.052Z,3.80
2023-04-03T04:17:56.799Z,3.80
2023-04-03T04:20:27.105Z,3.80
2023-04-03T04:22:57.014Z,3.80
2023-04-03T04:25:26.906Z,3.80
2023-04-03T04:27:56.748Z,3.80
2023-04-03T04:30:27.309Z,3.80
2023-04-03T04:32:59.824Z,3.80
2023-04-03T04:35:29.646Z,3.90
2023-04-03T04:37:59.601Z,3.90
2023-04-03T04:40:29.694Z,3.90
2023-04-03T04:42:59.537Z,3.90
2023-04-03T04:45:29.374Z,3.90
2023-04-03T04:48:02.018Z,3.90
2023-04-03T04:50:31.926Z,3.80
2023-04-03T04:53:01.833Z,3.80
2023-04-03T04:55:31.738Z,3.80
2023-04-03T04:58:01.591Z,3.80
2023-04-03T05:00:31.636Z,3.80
2023-04-03T05:03:04.136Z,3.70
2023-04-03T05:05:34.099Z,3.70
2023-04-03T05:08:04.014Z,3.60
2023-04-03T05:10:34.282Z,3.50
2023-04-03T05:13:04.130Z,3.50
2023-04-03T05:15:34.157Z,3.50
2023-04-03T05:18:06.911Z,3.50
2023-04-03T05:20:38.110Z,3.40
2023-04-03T05:23:08.286Z,3.40
2023-04-03T05:25:38.415Z,3.50
2023-04-03T05:28:08.786Z,3.40
2023-04-03T05:30:38.770Z,3.40
2023-04-03T05:33:11.354Z,3.40
2023-04-03T05:35:42.700Z,3.30
2023-04-03T05:38:12.983Z,3.30
2023-04-03T05:40:43.047Z,3.30
2023-04-03T05:43:13.127Z,3.30
2023-04-03T05:45:45.331Z,3.20
2023-04-03T05:48:18.694Z,3.30
2023-04-03T05:50:49.697Z,3.40
2023-04-03T05:53:24.829Z,3.40
2023-04-03T05:55:54.982Z,3.40
2023-04-03T05:58:24.936Z,3.40
2023-04-03T06:00:54.801Z,3.40
2023-04-03T06:03:27.847Z,3.40
2023-04-03T06:05:57.833Z,3.40
2023-04-03T06:08:27.743Z,3.50
2023-04-03T06:10:57.663Z,3.50
2023-04-03T06:13:27.576Z,3.50
2023-04-03T06:15:57.530Z,3.60
2023-04-03T06:18:29.997Z,3.60
2023-04-03T06:20:59.915Z,3.60
2023-04-03T06:23:29.755Z,3.60
2023-04-03T06:25:59.587Z,3.60
2023-04-03T06:28:29.516Z,3.60
2023-04-03T06:30:59.385Z,3.60
2023-04-03T06:33:31.824Z,3.60
2023-04-03T06:36:02.532Z,3.80
2023-04-03T06:38:32.877Z,3.80
2023-04-03T06:41:02.789Z,3.80
2023-04-03T06:43:34.505Z,4.00
2023-04-03T06:46:04.996Z,4.00
2023-04-03T06:48:37.834Z,4.00
2023-04-03T06:51:07.884Z,3.80
2023-04-03T06:53:37.723Z,3.90
2023-04-03T06:56:08.397Z,3.80
2023-04-03T06:58:38.546Z,3.80
2023-04-03T07:01:08.628Z,3.80
2023-04-03T07:03:41.194Z,3.90
2023-04-03T07:06:13.703Z,3.90
2023-04-03T07:08:44.084Z,4.00
2023-04-03T07:11:15.512Z,4.00
2023-04-03T07:13:45.581Z,4.20
2023-04-03T07:16:15.787Z,4.10
2023-04-03T07:18:48.554Z,4.20
2023-04-03T07:21:18.574Z,4.30
2023-04-03T07:26:19.551Z,4.30
2023-04-03T07:28:49.724Z,4.40
2023-04-03T07:31:20.930Z,4.50
2023-04-03T07:33:53.401Z,4.40
2023-04-03T07:36:25.614Z,4.60
2023-04-03T07:38:55.485Z,4.70
2023-04-03T07:41:25.544Z,4.80
2023-04-03T07:43:56.081Z,4.60
2023-04-03T07:46:26.086Z,4.70
2023-04-03T07:48:59.451Z,4.80
2023-04-03T07:51:30.959Z,4.80
2023-04-03T07:54:00.770Z,5.00
2023-04-03T07:56:30.654Z,5.00
2023-04-03T07:59:00.549Z,4.70
2023-04-03T08:01:33.469Z,4.80
2023-04-03T08:04:06.535Z,4.90
2023-04-03T08:06:45.918Z,5.10
2023-04-03T08:09:18.142Z,5.10
2023-04-03T08:11:48.193Z,5.00
2023-04-03T08:14:19.696Z,5.20
2023-04-03T08:16:51.159Z,5.20
2023-04-03T08:19:26.565Z,5.30
2023-04-03T08:21:57.918Z,5.60
2023-04-03T08:24:28.033Z,5.60
2023-04-03T08:26:58.147Z,5.90
2023-04-03T08:29:28.564Z,5.60
2023-04-03T08:31:58.413Z,5.60
2023-04-03T08:34:30.856Z,5.80
2023-04-03T08:37:00.737Z,5.70
2023-04-03T08:39:30.724Z,5.60
2023-04-03T08:42:03.454Z,6.00
2023-04-03T08:44:43.095Z,5.90
2023-04-03T08:47:21.891Z,6.10
2023-04-03T08:49:57.274Z,6.00
2023-04-03T08:52:36.093Z,6.00
2023-04-03T08:55:08.786Z,6.40
2023-04-03T08:57:43.093Z,5.90
2023-04-03T09:00:22.412Z,6.00
2023-04-03T09:02:54.032Z,6.10
2023-04-03T09:05:40.233Z,6.00
2023-04-03T09:08:18.604Z,6.20
2023-04-03T09:10:48.584Z,6.20
2023-04-03T09:13:30.591Z,6.30
2023-04-03T09:16:00.777Z,6.20
2023-04-03T09:18:34.573Z,6.10
2023-04-03T09:21:17.509Z,6.50
2023-04-03T09:23:49.929Z,6.50
2023-04-03T09:26:23.515Z,6.50
2023-04-03T09:28:54.218Z,6.40
2023-04-03T09:31:27.077Z,6.60
2023-04-03T09:34:05.456Z,6.90
2023-04-03T09:36:49.853Z,6.80
2023-04-03T09:39:21.794Z,6.70
2023-04-03T09:42:03.705Z,6.80
2023-04-03T09:44:36.363Z,6.70
2023-04-03T09:47:22.569Z,7.10
2023-04-03T09:49:52.437Z,6.90
2023-04-03T09:52:30.445Z,6.60
2023-04-03T09:55:11.364Z,6.80
2023-04-03T09:57:41.322Z,6.50
2023-04-03T10:00:25.426Z,6.40
2023-04-03T10:02:58.109Z,6.40
2023-04-03T10:05:36.281Z,6.60
2023-04-03T10:08:25.065Z,6.60
2023-04-03T10:11:11.614Z,6.40
2023-04-03T10:13:55.228Z,6.80
2023-04-03T10:16:30.434Z,6.70
2023-04-03T10:19:30.166Z,6.50
2023-04-03T10:22:05.728Z,6.60
2023-04-03T10:24:47.823Z,6.50
2023-04-03T10:27:27.175Z,6.70
2023-04-03T10:30:04.596Z,7.30
2023-04-03T10:32:46.051Z,7.20
2023-04-03T10:35:23.835Z,7.30
2023-04-03T10:38:04.678Z,7.10
2023-04-03T10:40:45.941Z,7.10
2023-04-03T10:43:25.116Z,7.20
2023-04-03T10:46:01.093Z,6.90
2023-04-03T10:48:53.086Z,6.80
2023-04-03T10:51:29.190Z,7.00
2023-04-03T10:54:03.643Z,7.10
2023-04-03T10:56:43.134Z,7.10
2023-04-03T10:59:24.784Z,6.90
2023-04-03T11:01:59.055Z,6.60
2023-04-03T11:04:32.976Z,6.80
2023-04-03T11:07:08.597Z,6.80
2023-04-03T11:09:42.121Z,6.80
2023-04-03T11:12:19.746Z,6.60
2023-04-03T11:14:51.644Z,6.80
2023-04-03T11:17:31.761Z,6.90
2023-04-03T11:20:07.985Z,6.90
2023-04-03T11:22:42.022Z,6.70
2023-04-03T11:25:23.960Z,6.60
2023-04-03T11:28:02.809Z,6.20
2023-04-03T11:30:38.565Z,6.40
2023-04-03T11:33:30.665Z,6.40
2023-04-03T11:36:09.884Z,6.60
2023-04-03T11:38:54.027Z,6.60
2023-04-03T11:41:31.000Z,6.70
2023-04-03T11:44:05.102Z,6.70
2023-04-03T11:46:58.040Z,6.70
2023-04-03T11:50:10.471Z,6.60
2023-04-03T11:53:02.734Z,6.40
2023-04-03T11:55:56.877Z,6.20
2023-04-03T11:58:28.441Z,6.40
2023-04-03T12:01:13.224Z,6.70
2023-04-03T12:04:02.469Z,6.60
2023-04-03T12:07:05.380Z,6.60
2023-04-03T12:10:01.624Z,6.80
2023-04-03T12:12:40.586Z,6.70
2023-04-03T12:15:28.435Z,6.90
2023-04-03T12:18:00.930Z,7.00
2023-04-03T12:20:59.321Z,6.90
2023-04-03T12:23:32.554Z,7.00
2023-04-03T12:26:23.905Z,6.90
2023-04-03T12:28:56.778Z,6.80
2023-04-03T12:31:35.358Z,6.90
2023-04-03T12:34:29.105Z,7.10
2023-04-03T12:37:06.296Z,7.20
2023-04-03T12:39:53.170Z,7.10
2023-04-03T12:42:44.519Z,6.90
2023-04-03T12:45:21.654Z,7.20
2023-04-03T12:47:54.540Z,7.50
2023-04-03T12:50:31.274Z,7.10
2023-04-03T12:53:05.290Z,7.10
2023-04-03T12:55:35.237Z,7.20
2023-04-03T12:58:18.904Z,7.10
2023-04-03T13:00:48.767Z,7.10
2023-04-03T13:03:28.435Z,7.30
2023-04-03T13:06:04.451Z,7.30
2023-04-03T13:08:34.970Z,7.20
2023-04-03T13:11:07.696Z,7.30
2023-04-03T13:13:38.736Z,7.30
2023-04-03T13:16:14.852Z,7.40
2023-04-03T13:18:45.528Z,7.50
2023-04-03T13:21:24.393Z,7.70
2023-04-03T13:24:07.135Z,7.70
2023-04-03T13:26:42.320Z,7.40
2023-04-03T13:29:31.081Z,7.50
2023-04-03T13:32:04.052Z,7.40
2023-04-03T13:34:41.543Z,7.30
2023-04-03T13:37:24.110Z,7.40
2023-04-03T13:40:13.610Z,7.40
2023-04-03T13:42:45.892Z,7.50
2023-04-03T13:45:25.078Z,7.70
2023-04-03T13:47:57.455Z,7.70
2023-04-03T13:50:30.157Z,7.60
2023-04-03T13:53:05.969Z,7.60
2023-04-03T13:55:58.588Z,7.70
2023-04-03T13:58:32.698Z,7.40
2023-04-03T14:01:10.855Z,7.30
2023-04-03T14:03:46.273Z,7.50
2023-04-03T14:06:18.314Z,7.50
2023-04-03T14:08:50.118Z,7.50
2023-04-03T14:11:23.479Z,7.50
2023-04-03T14:13:56.655Z,7.60
2023-04-03T14:16:31.000Z,7.50
2023-04-03T14:19:01.201Z,7.20
2023-04-03T14:21:31.469Z,7.30
2023-04-03T14:24:01.673Z,7.40
2023-04-03T14:26:33.506Z,7.30
2023-04-03T14:29:06.101Z,7.60
2023-04-03T14:31:36.206Z,7.60
2023-04-03T14:34:06.077Z,7.40
2023-04-03T14:36:36.747Z,7.20
2023-04-03T14:39:08.451Z,7.30
2023-04-03T14:41:38.992Z,7.50
2023-04-03T14:44:11.529Z,7.40
2023-04-03T14:49:21.781Z,7.80
2023-04-03T14:51:51.688Z,7.70
2023-04-03T14:54:26.707Z,7.30
2023-04-03T14:56:57.854Z,7.20
2023-04-03T14:59:30.890Z,7.20
2023-04-03T15:02:00.955Z,7.20
2023-04-03T15:04:31.391Z,7.20
2023-04-03T15:07:01.407Z,7.20
2023-04-03T15:09:31.587Z,7.50
2023-04-03T15:12:01.607Z,7.50
2023-04-03T15:14:37.392Z,7.60
2023-04-03T15:17:23.198Z,7.60
2023-04-03T15:19:53.067Z,7.50
2023-04-03T15:22:23.937Z,7.40
2023-04-03T15:24:53.825Z,7.20
2023-04-03T15:27:23.803Z,7.20
2023-04-03T15:29:56.295Z,6.90
2023-04-03T15:32:26.345Z,6.70
2023-04-03T15:34:57.319Z,6.80
2023-04-03T15:37:27.226Z,6.90
2023-04-03T15:39:57.140Z,7.10
2023-04-03T15:42:27.029Z,7.20
2023-04-03T15:44:59.595Z,7.30
2023-04-03T15:47:30.460Z,7.40
2023-04-03T15:50:00.604Z,7.50
2023-04-03T15:52:30.542Z,7.70
2023-04-03T15:55:00.609Z,7.60
2023-04-03T16:00:25.005Z,7.20
2023-04-03T16:02:58.579Z,7.00
2023-04-03T16:05:28.767Z,7.00
2023-04-03T16:07:58.653Z,7.00
2023-04-03T16:10:28.533Z,6.90
2023-04-03T16:12:58.462Z,6.70
2023-04-03T16:15:33.017Z,6.90
2023-04-03T16:18:04.213Z,6.90
2023-04-03T16:20:34.256Z,6.90
2023-04-03T16:23:05.300Z,7.10
2023-04-03T16:25:35.197Z,7.20
2023-04-03T16:28:05.108Z,7.10
2023-04-03T16:30:37.583Z,7.10
2023-04-03T16:33:07.790Z,7.00
2023-04-03T16:35:38.180Z,6.70
2023-04-03T16:38:08.269Z,6.70
2023-04-03T16:40:38.354Z,6.70
2023-04-03T16:43:08.300Z,6.70
2023-04-03T16:45:41.196Z,6.60
2023-04-03T16:48:11.653Z,6.60
2023-04-03T16:50:41.760Z,6.60
2023-04-03T16:53:11.950Z,6.60
2023-04-03T16:55:41.807Z,6.60
2023-04-03T16:58:11.734Z,6.60
2023-04-03T17:00:44.252Z,6.70
2023-04-03T17:03:14.414Z,6.70
2023-04-03T17:05:44.730Z,6.90
2023-04-03T17:08:14.968Z,6.80
2023-04-03T17:10:44.877Z,6.80
2023-04-03T17:13:14.864Z,6.80
2023-04-03T17:15:47.328Z,6.70
2023-04-03T17:18:18.467Z,6.60
2023-04-03T17:20:48.298Z,6.50
2023-04-03T17:23:18.358Z,6.50
2023-04-03T17:25:48.194Z,6.50
2023-04-03T17:28:18.030Z,6.40
2023-04-03T17:30:50.759Z,6.30
2023-04-03T17:33:23.123Z,6.20
2023-04-03T17:35:52.985Z,6.10
2023-04-03T17:38:22.876Z,6.10
2023-04-03T17:40:52.734Z,6.10
2023-04-03T17:43:22.746Z,6.00
2023-04-03T17:45:56.174Z,6.00
2023-04-03T17:48:27.145Z,5.90
2023-04-03T17:50:56.979Z,5.80
2023-04-03T17:53:27.719Z,5.80
2023-04-03T17:55:57.555Z,5.70
2023-04-03T17:58:27.488Z,5.70
2023-04-03T18:00:59.953Z,5.70
2023-04-03T18:03:29.931Z,5.70
2023-04-03T18:05:59.809Z,5.60
2023-04-03T18:08:31.133Z,5.60
2023-04-03T18:11:01.057Z,5.60
2023-04-03T18:13:31.092Z,5.50
2023-04-03T18:16:03.596Z,5.50
2023-04-03T18:18:33.611Z,5.40
2023-04-03T18:21:03.849Z,5.30
2023-04-03T18:23:35.801Z,5.20
2023-04-03T18:26:06.800Z,5.10
2023-04-03T18:28:36.676Z,5.00
2023-04-03T18:31:13.396Z,4.90
2023-04-03T18:33:43.273Z,4.90
2023-04-03T18:36:13.799Z,4.80
2023-04-03T18:38:43.735Z,4.80
2023-04-03T18:41:13.618Z,4.70
2023-04-03T18:43:43.779Z,4.60
2023-04-03T18:46:16.265Z,4.60
2023-04-03T18:48:47.645Z,4.60
2023-04-03T18:51:17.833Z,4.60
2023-04-03T18:53:47.702Z,4.50
2023-04-03T18:56:17.678Z,4.50
2023-04-03T18:58:47.568Z,4.50
2023-04-03T19:01:20.504Z,4.40
2023-04-03T19:03:50.580Z,4.40
2023-04-03T19:06:20.483Z,4.40
2023-04-03T19:08:52.126Z,4.30
2023-04-03T19:11:23.111Z,4.30
2023-04-03T19:14:10.434Z,4.30
2023-04-03T19:16:47.927Z,4.20
2023-04-03T19:19:18.089Z,4.20
2023-04-03T19:21:47.964Z,4.20
2023-04-03T19:24:18.780Z,4.20
2023-04-03T19:26:48.792Z,4.20
2023-04-03T19:29:18.733Z,4.30
2023-04-03T19:31:51.581Z,4.30
2023-04-03T19:34:21.548Z,4.30
2023-04-03T19:36:52.297Z,4.30
2023-04-03T19:39:22.259Z,4.30
2023-04-03T19:41:52.282Z,4.20
2023-04-03T19:44:22.196Z,4.20
2023-04-03T19:46:56.360Z,4.20
2023-04-03T19:49:26.403Z,4.20
2023-04-03T19:51:56.406Z,4.10
2023-04-03T19:54:26.863Z,4.10
2023-04-03T19:56:56.781Z,4.10
2023-04-03T19:59:26.962Z,4.00
2023-04-03T20:01:59.958Z,4.00
2023-04-03T20:04:29.889Z,4.00
2023-04-03T20:06:59.817Z,3.90
2023-04-03T20:09:29.935Z,4.00
2023-04-03T20:12:01.453Z,3.90
2023-04-03T20:14:31.440Z,3.90
2023-04-03T20:17:04.464Z,3.80
2023-04-03T20:19:34.477Z,3.80
2023-04-03T20:22:04.632Z,3.80
2023-04-03T20:24:34.789Z,3.70
2023-04-03T20:27:05.727Z,3.70
2023-04-03T20:29:38.447Z,3.70
2023-04-03T20:32:12.070Z,3.60
2023-04-03T20:34:42.750Z,3.60
2023-04-03T20:37:14.554Z,3.60
2023-04-03T20:39:44.442Z,3.50
2023-04-03T20:42:14.369Z,3.50
2023-04-03T20:44:46.090Z,3.40
2023-04-03T20:47:18.639Z,3.30
2023-04-03T20:49:49.113Z,3.30
2023-04-03T20:52:18.953Z,3.30
2023-04-03T20:54:48.893Z,3.20
2023-04-03T20:57:18.754Z,3.20
2023-04-03T20:59:48.631Z,3.10
2023-04-03T21:02:21.040Z,3.10
2023-04-03T21:04:55.463Z,3.10
2023-04-03T21:07:56.010Z,3.00
2023-04-03T21:10:56.043Z,2.90
2023-04-03T21:13:56.351Z,3.00
2023-04-03T21:16:27.289Z,2.90
2023-04-03T21:19:09.382Z,2.80
2023-04-03T21:21:39.718Z,2.80
2023-04-03T21:24:11.439Z,2.70
2023-04-03T21:26:42.402Z,2.70
2023-04-03T21:29:12.884Z,2.70
2023-04-03T21:31:56.920Z,2.70
2023-04-03T21:34:31.109Z,2.60
2023-04-03T21:37:05.722Z,2.60
2023-04-03T21:39:36.321Z,2.50
2023-04-03T21:42:07.591Z,2.50
2023-04-03T21:44:37.537Z,2.50
2023-04-03T21:47:07.778Z,2.40
2023-04-03T21:49:40.288Z,2.30
2023-04-03T21:52:10.188Z,2.30
2023-04-03T21:54:40.148Z,2.30
2023-04-03T21:57:11.829Z,2.30
2023-04-03T21:59:42.033Z,2.20
2023-04-03T22:02:11.996Z,2.20
2023-04-03T22:04:45.833Z,2.20
2023-04-03T22:07:16.342Z,2.20
2023-04-03T22:09:46.402Z,2.20
2023-04-03T22:12:16.228Z,2.20
2023-04-03T22:14:46.393Z,2.10
2023-04-03T22:17:17.092Z,2.10
2023-04-03T22:19:49.557Z,2.00
2023-04-03T22:22:20.522Z,2.00
2023-04-03T22:24:50.465Z,1.90
2023-04-03T22:27:20.430Z,1.90
2023-04-03T22:29:50.317Z,1.80
2023-04-03T22:32:20.230Z,1.90
2023-04-03T22:34:52.646Z,1.80
2023-04-03T22:37:22.701Z,1.80
2023-04-03T22:39:53.922Z,1.70
2023-04-03T22:42:23.783Z,1.70
2023-04-03T22:44:53.724Z,1.60
2023-04-03T22:47:23.579Z,1.70
2023-04-03T22:49:56.148Z,1.70
2023-04-03T22:52:26.098Z,1.60
2023-04-03T22:54:57.982Z,1.60
2023-04-03T22:57:31.465Z,1.60
2023-04-03T23:00:01.377Z,1.50
2023-04-03T23:02:32.099Z,1.50
2023-04-03T23:05:05.198Z,1.50
2023-04-03T23:07:35.021Z,1.50
2023-04-03T23:10:04.907Z,1.40
2023-04-03T23:12:40.165Z,1.40
2023-04-03T23:15:11.193Z,1.40
2023-04-03T23:17:41.423Z,1.40
2023-04-03T23:20:14.488Z,1.40
2023-04-03T23:22:45.821Z,1.40
2023-04-03T23:25:15.957Z,1.40
2023-04-03T23:27:52.729Z,1.40
2023-04-03T23:30:22.849Z,1.40
2023-04-03T23:32:52.781Z,1.30
2023-04-03T23:35:25.263Z,1.20
2023-04-03T23:37:55.175Z,1.30
2023-04-03T23:40:25.048Z,1.20
2023-04-03T23:42:54.898Z,1.20
2023-04-03T23:45:24.771Z,1.20
2023-04-03T23:47:54.631Z,1.10
2023-04-03T23:50:27.436Z,1.20
2023-04-03T23:52:57.677Z,1.10
2023-04-03T23:55:27.659Z,1.00
2023-04-03T23:57:57.511Z,1.00
